Time;durP1;ratioP1;P1;durP2;ratioP2;P2;SDS_P1;SDS_P2;PMS_P1;PMS_P2;Temp;Humidity;BMP_temperature;BMP_pressure;BME280_temperature;BME280_humidity;BME280_pressure;Samples;Min_cycle;Max_cycle;Signal;HPM_P1;HPM_P2
2023/01/01 00:01:39;;;;;;;39.53;29.30;;;13.60;99.90;;;;;;4938075;29;20493;-75
2023/01/01 00:04:09;;;;;;;36.60;29.00;;;13.60;99.90;;;;;;4953701;28;20560;-75
2023/01/01 00:06:35;;;;;;;35.40;28.13;;;13.60;99.90;;;;;;4954241;29;20412;-75
2023/01/01 00:11:46;;;;;;;36.10;25.27;;;13.70;99.90;;;;;;4954350;29;20465;-75
2023/01/01 00:14:12;;;;;;;29.57;24.20;;;13.60;99.90;;;;;;4955043;28;20440;-75
2023/01/01 00:16:39;;;;;;;29.63;21.73;;;13.60;99.90;;;;;;4953711;29;20465;-75
2023/01/01 00:19:04;;;;;;;29.07;23.10;;;13.60;99.90;;;;;;4955074;28;20415;-75
2023/01/01 00:21:31;;;;;;;27.60;21.60;;;13.60;99.90;;;;;;4953938;29;20421;-75
2023/01/01 00:23:56;;;;;;;25.50;20.17;;;13.70;99.90;;;;;;4954023;28;21010;-75
2023/01/01 00:26:26;;;;;;;31.07;20.60;;;13.70;99.90;;;;;;4937992;29;20796;-75
2023/01/01 00:28:51;;;;;;;31.23;21.97;;;13.70;99.90;;;;;;4938044;29;20443;-75
2023/01/01 00:31:21;;;;;;;34.73;20.80;;;13.70;99.90;;;;;;4922345;29;20427;-75
2023/01/01 00:33:53;;;;;;;22.63;18.80;;;13.70;99.90;;;;;;4953835;28;20448;-75
2023/01/01 00:36:21;;;;;;;28.43;18.87;;;13.70;99.90;;;;;;4954759;29;20807;-75
2023/01/01 00:38:47;;;;;;;29.60;19.07;;;13.70;99.90;;;;;;4954849;29;20413;-75
2023/01/01 00:41:14;;;;;;;24.20;18.83;;;13.70;99.90;;;;;;4953747;29;20428;-75
2023/01/01 00:43:41;;;;;;;22.93;18.10;;;13.70;99.90;;;;;;4953630;28;20430;-75
2023/01/01 00:46:08;;;;;;;26.60;19.47;;;13.70;99.90;;;;;;4953582;29;20450;-75
2023/01/01 00:48:35;;;;;;;24.33;18.10;;;13.70;99.90;;;;;;4953658;29;20393;-74
2023/01/01 00:51:02;;;;;;;22.43;18.67;;;13.70;99.90;;;;;;4954813;29;20482;-75
2023/01/01 00:53:28;;;;;;;31.60;19.70;;;13.70;99.90;;;;;;4954830;28;20494;-75
2023/01/01 00:55:55;;;;;;;23.43;18.67;;;13.70;99.90;;;;;;4953721;29;20855;-74
2023/01/01 00:58:23;;;;;;;27.80;21.47;;;13.70;99.90;;;;;;4937806;29;20465;-73
2023/01/01 01:00:50;;;;;;;23.83;19.53;;;13.70;99.90;;;;;;4937655;29;20891;-73
2023/01/01 01:03:29;;;;;;;26.77;20.93;;;13.70;99.90;;;;;;4937580;29;20445;-73
2023/01/01 01:06:01;;;;;;;25.80;20.00;;;13.70;99.90;;;;;;4953430;29;20447;-73
2023/01/01 01:08:28;;;;;;;27.50;21.50;;;13.60;99.90;;;;;;4937734;29;20466;-73
2023/01/01 01:11:04;;;;;;;28.40;21.80;;;13.70;99.90;;;;;;4938170;29;20774;-74
2023/01/01 01:13:31;;;;;;;28.87;20.57;;;13.70;99.90;;;;;;4954376;28;20449;-72
2023/01/01 01:15:57;;;;;;;25.93;20.67;;;13.60;99.90;;;;;;4956086;29;20820;-73
2023/01/01 01:18:23;;;;;;;31.13;22.60;;;13.60;99.90;;;;;;4941084;29;20431;-73
2023/01/01 01:20:51;;;;;;;29.93;21.77;;;13.60;99.90;;;;;;4956957;29;20484;-73
2023/01/01 01:23:20;;;;;;;27.17;21.03;;;13.60;99.90;;;;;;4957861;28;20549;-73
2023/01/01 01:25:47;;;;;;;25.13;20.97;;;13.60;99.90;;;;;;4958022;28;20405;-73
2023/01/01 01:28:13;;;;;;;24.87;19.83;;;13.60;99.90;;;;;;4957821;28;20404;-73
2023/01/01 01:30:39;;;;;;;27.00;20.40;;;13.70;99.90;;;;;;4956757;29;20411;-73
2023/01/01 01:33:05;;;;;;;25.70;18.13;;;13.70;99.90;;;;;;4940823;29;20496;-73
2023/01/01 01:35:32;;;;;;;22.60;18.00;;;13.60;99.90;;;;;;4956487;29;20520;-73
2023/01/01 01:38:01;;;;;;;24.40;18.97;;;13.60;99.90;;;;;;4957782;29;20408;-73
2023/01/01 01:40:27;;;;;;;21.53;16.50;;;13.60;99.90;;;;;;4957688;28;20498;-73
2023/01/01 01:42:53;;;;;;;21.83;15.40;;;13.60;99.90;;;;;;4940528;29;20520;-73
2023/01/01 01:45:19;;;;;;;23.80;16.57;;;13.70;99.90;;;;;;4956519;29;20418;-73
2023/01/01 01:47:54;;;;;;;19.73;14.40;;;13.60;99.90;;;;;;4957708;29;20782;-73
2023/01/01 01:50:26;;;;;;;18.63;15.20;;;13.60;99.90;;;;;;4957483;29;20404;-73
2023/01/01 01:53:01;;;;;;;16.60;13.30;;;13.60;99.90;;;;;;4940408;29;20452;-73
2023/01/01 01:55:30;;;;;;;16.63;12.67;;;13.60;99.90;;;;;;4956065;29;20515;-73
2023/01/01 01:57:57;;;;;;;18.50;12.77;;;13.70;99.90;;;;;;4956199;29;20489;-73
2023/01/01 02:00:22;;;;;;;16.77;12.87;;;13.60;99.90;;;;;;4956106;29;20892;-73
2023/01/01 02:02:58;;;;;;;12.43;10.77;;;13.60;99.90;;;;;;4924385;29;20504;-75
2023/01/01 02:05:25;;;;;;;14.97;11.00;;;13.60;99.90;;;;;;4956084;29;20487;-75
2023/01/01 02:07:54;;;;;;;16.40;11.30;;;13.60;99.90;;;;;;4955837;29;20882;-74
2023/01/01 02:10:21;;;;;;;16.70;11.47;;;13.60;99.90;;;;;;4955919;29;20427;-74
2023/01/01 02:12:47;;;;;;;15.50;10.30;;;13.60;99.90;;;;;;4939991;29;20462;-74
2023/01/01 02:15:13;;;;;;;14.77;9.87;;;13.60;99.90;;;;;;4955810;29;20455;-74
2023/01/01 02:17:44;;;;;;;14.43;9.00;;;13.60;99.90;;;;;;4955883;29;20411;-74
2023/01/01 02:20:29;;;;;;;15.57;9.17;;;13.60;99.90;;;;;;4955688;29;20979;-74
2023/01/01 02:23:17;;;;;;;13.97;8.90;;;13.60;99.90;;;;;;4955807;28;20488;-74
2023/01/01 02:26:09;;;;;;;12.67;8.77;;;13.60;99.90;;;;;;4956773;28;20457;-74
2023/01/01 02:28:59;;;;;;;9.50;7.97;;;13.60;99.90;;;;;;4923725;29;20479;-75
2023/01/01 02:31:43;;;;;;;12.00;7.80;;;13.60;99.90;;;;;;4939741;29;20881;-74
2023/01/01 02:34:15;;;;;;;9.90;6.93;;;13.60;99.90;;;;;;4956612;28;20435;-74
2023/01/01 02:36:50;;;;;;;9.80;7.57;;;13.60;99.90;;;;;;4955366;29;20949;-74
2023/01/01 02:39:26;;;;;;;9.60;7.40;;;13.60;99.90;;;;;;4939911;29;20492;-74
2023/01/01 02:41:55;;;;;;;9.47;6.93;;;13.60;99.90;;;;;;4939607;29;20417;-74
2023/01/01 02:44:23;;;;;;;8.80;6.10;;;13.60;99.90;;;;;;4956386;28;20449;-74
2023/01/01 02:46:49;;;;;;;8.13;5.60;;;13.60;99.90;;;;;;4956589;29;20422;-74
2023/01/01 02:49:15;;;;;;;6.40;5.60;;;13.60;99.90;;;;;;4955245;29;20487;-74
2023/01/01 02:52:03;;;;;;;11.97;6.60;;;13.60;99.90;;;;;;4955213;29;20453;-74
2023/01/01 02:54:32;;;;;;;7.10;5.40;;;13.60;99.90;;;;;;4955440;28;20453;-74
2023/01/01 02:57:07;;;;;;;7.90;5.37;;;13.60;99.90;;;;;;4939246;29;20446;-74
2023/01/01 03:03:14;;;;;;;7.33;5.37;;;13.60;99.90;;;;;;4956244;28;20468;-74
2023/01/01 03:08:57;;;;;;;5.37;4.73;;;13.60;99.90;;;;;;4955033;29;20761;-74
2023/01/01 03:11:26;;;;;;;8.60;4.53;;;13.60;99.90;;;;;;4939028;29;20432;-74
2023/01/01 03:14:11;;;;;;;6.33;4.60;;;13.60;99.90;;;;;;4939538;29;20980;-74
2023/01/01 03:17:00;;;;;;;7.37;4.53;;;13.60;99.90;;;;;;4954583;29;20452;-74
2023/01/01 03:19:31;;;;;;;7.23;4.30;;;13.60;99.90;;;;;;4954232;29;20461;-74
2023/01/01 03:22:03;;;;;;;6.90;4.13;;;13.60;99.90;;;;;;4938801;29;20401;-74
2023/01/01 03:24:59;;;;;;;7.30;4.57;;;13.60;99.90;;;;;;4955697;28;20429;-74
2023/01/01 03:27:40;;;;;;;8.07;4.20;;;13.60;99.90;;;;;;4938624;29;20407;-75
2023/01/01 03:30:09;;;;;;;6.57;4.10;;;13.60;99.90;;;;;;4955754;29;20499;-74
2023/01/01 03:33:06;;;;;;;5.20;4.40;;;13.60;99.90;;;;;;4954391;28;20460;-74
2023/01/01 03:35:50;;;;;;;5.20;3.47;;;13.60;99.90;;;;;;4938522;29;20840;-74
2023/01/01 03:38:33;;;;;;;8.00;3.93;;;13.60;99.90;;;;;;4953869;28;20510;-74
2023/01/01 03:41:09;;;;;;;4.30;3.53;;;13.60;99.90;;;;;;4954349;29;20484;-74
2023/01/01 03:43:55;;;;;;;6.90;4.60;;;13.60;99.90;;;;;;4954207;28;20429;-74
2023/01/01 03:46:25;;;;;;;5.30;3.57;;;13.60;99.90;;;;;;4938506;29;20461;-74
2023/01/01 03:48:59;;;;;;;6.97;4.03;;;13.60;99.90;;;;;;4938425;29;20422;-74
2023/01/01 03:51:40;;;;;;;4.20;3.30;;;13.60;99.90;;;;;;4938470;29;20434;-74
2023/01/01 03:54:43;;;;;;;6.43;3.50;;;13.60;99.90;;;;;;4938035;29;20438;-74
2023/01/01 03:57:24;;;;;;;3.97;2.73;;;13.60;99.90;;;;;;4954275;29;20402;-74
2023/01/01 04:00:04;;;;;;;8.47;4.00;;;13.60;99.90;;;;;;4938263;29;20436;-74
2023/01/01 04:02:45;;;;;;;4.00;2.63;;;13.60;99.90;;;;;;4954182;28;21055;-74
2023/01/01 04:05:12;;;;;;;9.67;3.57;;;13.60;99.90;;;;;;4955007;29;20453;-74
2023/01/01 04:07:39;;;;;;;4.00;2.80;;;13.60;99.90;;;;;;4953964;29;20412;-73
2023/01/01 04:10:15;;;;;;;5.47;2.87;;;13.60;99.90;;;;;;4936982;29;20539;-76
2023/01/01 04:12:52;;;;;;;9.33;3.47;;;13.60;99.90;;;;;;4954378;29;20456;-76
2023/01/01 04:15:22;;;;;;;5.60;2.90;;;13.60;99.90;;;;;;4936759;29;20450;-76
2023/01/01 04:17:49;;;;;;;4.40;3.43;;;13.60;99.90;;;;;;4937664;29;20440;-72
2023/01/01 04:20:19;;;;;;;5.27;3.03;;;13.60;99.90;;;;;;4953723;29;20430;-76
2023/01/01 04:22:47;;;;;;;5.90;3.17;;;13.60;99.90;;;;;;4954971;28;21018;-76
2023/01/01 04:25:13;;;;;;;3.63;2.63;;;13.60;99.90;;;;;;4936765;29;20986;-75
2023/01/01 04:27:40;;;;;;;9.60;3.37;;;13.60;99.90;;;;;;4953412;29;20576;-75
2023/01/01 04:30:11;;;;;;;6.63;2.83;;;13.60;99.90;;;;;;4953042;29;20996;-75
2023/01/01 04:32:39;;;;;;;4.97;3.30;;;13.60;99.90;;;;;;4953178;29;20442;-76
2023/01/01 04:35:07;;;;;;;9.13;3.53;;;13.60;99.90;;;;;;4937590;29;20539;-78
2023/01/01 04:37:38;;;;;;;5.30;4.10;;;13.60;99.90;;;;;;4954229;29;20817;-78
2023/01/01 04:40:07;;;;;;;6.70;3.83;;;13.60;99.90;;;;;;4954268;29;20395;-78
2023/01/01 04:42:34;;;;;;;6.13;4.00;;;13.60;99.90;;;;;;4938583;29;20933;-78
2023/01/01 04:45:00;;;;;;;7.10;3.77;;;13.60;99.90;;;;;;4954640;29;20446;-78
2023/01/01 04:47:29;;;;;;;5.13;4.50;;;13.60;99.90;;;;;;4954416;29;20805;-78
2023/01/01 04:49:55;;;;;;;5.63;4.83;;;13.60;99.90;;;;;;4955748;28;20822;-78
2023/01/01 04:52:21;;;;;;;6.27;4.67;;;13.60;99.90;;;;;;4959394;28;20444;-78
2023/01/01 04:54:53;;;;;;;5.87;4.43;;;13.60;99.90;;;;;;4958986;29;20979;-78
2023/01/01 04:57:19;;;;;;;5.37;4.10;;;13.60;99.90;;;;;;4973981;28;20949;-78
2023/01/01 04:59:51;;;;;;;5.17;4.37;;;13.60;99.90;;;;;;4957642;29;20487;-78
2023/01/01 05:02:17;;;;;;;6.70;4.43;;;13.60;99.90;;;;;;4958398;29;20459;-78
2023/01/01 05:04:43;;;;;;;6.43;3.80;;;13.60;99.90;;;;;;4957639;29;20503;-78
2023/01/01 05:07:11;;;;;;;9.73;4.73;;;13.60;99.90;;;;;;4942034;29;20467;-78
2023/01/01 05:09:42;;;;;;;5.07;3.90;;;13.60;99.90;;;;;;4958002;29;20436;-78
2023/01/01 05:12:08;;;;;;;10.00;4.10;;;13.60;99.90;;;;;;4957343;29;20406;-78
2023/01/01 05:14:34;;;;;;;5.37;3.90;;;13.60;99.90;;;;;;4958528;28;20976;-78
2023/01/01 05:17:01;;;;;;;5.27;3.70;;;13.60;99.90;;;;;;4957377;29;20440;-77
2023/01/01 05:19:29;;;;;;;7.30;3.63;;;13.60;99.90;;;;;;4973580;28;20446;-77
2023/01/01 05:21:55;;;;;;;8.37;3.90;;;13.60;99.90;;;;;;4926199;29;20434;-78
2023/01/01 05:24:23;;;;;;;7.27;3.57;;;13.60;99.90;;;;;;4957785;29;20502;-78
2023/01/01 05:26:49;;;;;;;4.20;3.20;;;13.60;99.90;;;;;;4957405;29;20519;-78
2023/01/01 05:29:15;;;;;;;4.93;2.97;;;13.60;99.90;;;;;;4958560;29;20402;-78
2023/01/01 05:31:46;;;;;;;8.03;3.33;;;13.60;99.90;;;;;;4941912;29;20930;-78
2023/01/01 05:34:13;;;;;;;6.47;3.20;;;13.60;99.90;;;;;;4957023;29;20458;-78
2023/01/01 05:36:39;;;;;;;6.20;3.20;;;13.60;99.90;;;;;;4956960;29;20458;-76
2023/01/01 05:39:10;;;;;;;7.27;3.27;;;13.60;99.90;;;;;;4939620;29;20401;-77
2023/01/01 05:41:40;;;;;;;8.23;3.37;;;13.60;99.90;;;;;;4955107;28;20446;-77
2023/01/01 05:44:08;;;;;;;5.37;3.57;;;13.60;99.90;;;;;;4956666;29;20445;-77
2023/01/01 05:46:39;;;;;;;6.63;3.03;;;13.60;99.90;;;;;;4955341;29;20507;-76
2023/01/01 05:49:08;;;;;;;7.10;3.00;;;13.60;99.90;;;;;;4956401;29;20496;-77
2023/01/01 05:51:36;;;;;;;3.80;2.80;;;13.60;99.90;;;;;;4956387;28;21008;-77
2023/01/01 05:54:03;;;;;;;6.40;2.90;;;13.60;99.90;;;;;;4955408;28;21151;-77
2023/01/01 05:56:34;;;;;;;3.60;2.60;;;13.60;99.90;;;;;;4955911;28;20459;-76
2023/01/01 05:59:03;;;;;;;6.53;3.10;;;13.60;99.90;;;;;;4939244;29;20449;-77
2023/01/01 06:01:30;;;;;;;4.10;2.97;;;13.60;99.90;;;;;;4954366;28;20548;-76
2023/01/01 06:03:57;;;;;;;5.10;2.67;;;13.60;99.90;;;;;;4938898;29;20469;-76
2023/01/01 06:06:28;;;;;;;7.90;2.70;;;13.60;99.90;;;;;;4957644;28;20474;-77
2023/01/01 06:08:59;;;;;;;5.20;2.33;;;13.60;99.90;;;;;;4955207;29;20435;-77
2023/01/01 06:11:27;;;;;;;8.03;2.53;;;13.60;99.90;;;;;;4954008;28;20426;-76
2023/01/01 06:13:58;;;;;;;4.17;2.37;;;13.60;99.90;;;;;;4954778;28;20438;-76
2023/01/01 06:16:28;;;;;;;4.63;2.40;;;13.60;99.90;;;;;;4954507;28;20479;-76
2023/01/01 06:18:58;;;;;;;4.10;2.30;;;13.60;99.90;;;;;;4922601;29;20451;-76
2023/01/01 06:21:28;;;;;;;5.33;2.67;;;13.60;99.90;;;;;;4954628;29;20413;-76
2023/01/01 06:23:57;;;;;;;3.77;2.10;;;13.60;99.90;;;;;;4954699;29;20811;-77
2023/01/01 06:26:26;;;;;;;4.10;2.50;;;13.60;99.90;;;;;;4954342;28;20522;-76
2023/01/01 06:28:52;;;;;;;3.37;2.70;;;13.60;99.90;;;;;;4955457;29;20443;-76
2023/01/01 06:31:20;;;;;;;6.30;2.33;;;13.60;99.90;;;;;;4922780;29;20461;-76
2023/01/01 06:33:52;;;;;;;4.03;2.63;;;13.60;99.90;;;;;;4953988;28;20468;-76
2023/01/01 06:36:25;;;;;;;4.57;2.30;;;13.60;99.90;;;;;;4938723;29;20466;-76
2023/01/01 06:38:54;;;;;;;6.17;3.03;;;13.60;99.90;;;;;;4938292;29;20413;-77
2023/01/01 06:41:22;;;;;;;5.30;2.50;;;13.60;99.90;;;;;;4955261;29;20425;-77
2023/01/01 06:43:50;;;;;;;4.23;2.20;;;13.60;99.90;;;;;;4954437;29;20535;-77
2023/01/01 06:46:33;;;;;;;4.90;3.30;;;13.60;99.90;;;;;;4954237;29;20478;-77
2023/01/01 06:49:04;;;;;;;4.57;3.07;;;13.60;99.90;;;;;;4937953;29;20441;-76
2023/01/01 06:51:35;;;;;;;3.60;2.63;;;13.60;99.90;;;;;;4953794;29;20416;-77
2023/01/01 06:54:02;;;;;;;7.27;2.50;;;13.60;99.90;;;;;;4953982;29;20569;-76
2023/01/01 06:56:31;;;;;;;5.00;2.83;;;13.60;99.90;;;;;;4954636;28;20572;-77
2023/01/01 06:58:58;;;;;;;3.97;1.93;;;13.60;99.90;;;;;;4954020;29;20773;-76
2023/01/01 07:01:29;;;;;;;5.00;2.70;;;13.60;99.90;;;;;;4954134;29;20437;-77
2023/01/01 07:03:59;;;;;;;5.07;2.43;;;13.60;99.90;;;;;;4953593;28;20461;-77
2023/01/01 07:06:31;;;;;;;3.10;2.60;;;13.60;99.90;;;;;;4937516;29;20488;-77
2023/01/01 07:09:00;;;;;;;6.40;2.83;;;13.60;99.90;;;;;;4938468;29;20417;-76
2023/01/01 07:11:27;;;;;;;3.27;2.50;;;13.60;99.90;;;;;;4952978;28;20434;-76
2023/01/01 07:13:58;;;;;;;5.57;2.23;;;13.60;99.90;;;;;;4952973;29;21010;-77
2023/01/01 07:16:24;;;;;;;4.13;2.10;;;13.60;99.90;;;;;;4954595;29;20452;-77
2023/01/01 07:18:51;;;;;;;7.33;2.30;;;13.60;99.90;;;;;;4953649;29;20489;-77
2023/01/01 07:21:27;;;;;;;3.40;2.67;;;13.60;99.90;;;;;;4953014;28;20456;-76
2023/01/01 07:23:56;;;;;;;4.93;2.73;;;13.60;99.90;;;;;;4954611;28;20454;-76
2023/01/01 07:26:24;;;;;;;4.30;2.40;;;13.60;99.90;;;;;;4953396;29;20515;-76
2023/01/01 07:28:50;;;;;;;8.10;2.53;;;13.60;99.90;;;;;;4953839;28;21053;-76
2023/01/01 07:31:17;;;;;;;3.63;2.40;;;13.60;99.90;;;;;;4953233;29;20437;-77
2023/01/01 07:33:43;;;;;;;4.43;2.17;;;13.60;99.90;;;;;;4936918;29;20460;-76
2023/01/01 07:36:09;;;;;;;4.13;2.27;;;13.60;99.90;;;;;;4954440;29;20462;-77
2023/01/01 07:38:35;;;;;;;4.03;2.67;;;13.60;99.90;;;;;;4953455;29;20486;-76
2023/01/01 07:41:03;;;;;;;5.37;2.43;;;13.60;99.90;;;;;;4921462;29;20448;-76
2023/01/01 07:43:31;;;;;;;5.23;2.33;;;13.60;99.90;;;;;;4954132;29;20548;-76
2023/01/01 07:46:00;;;;;;;8.30;2.60;;;13.60;99.90;;;;;;4954258;29;20839;-76
2023/01/01 07:48:27;;;;;;;4.00;2.87;;;13.60;99.90;;;;;;4952728;28;20445;-77
2023/01/01 07:50:53;;;;;;;6.03;2.80;;;13.60;99.90;;;;;;4954139;29;20511;-76
2023/01/01 07:53:58;;;;;;;3.07;2.03;;;13.60;99.90;;;;;;4932736;29;20463;-77
2023/01/01 07:56:24;;;;;;;6.80;2.63;;;13.60;99.90;;;;;;4919895;29;20467;-77
2023/01/01 07:58:50;;;;;;;5.60;2.10;;;13.60;99.90;;;;;;4916946;29;20425;-77
2023/01/01 08:01:20;;;;;;;5.70;2.67;;;13.60;99.90;;;;;;4915323;29;20955;-77
2023/01/01 08:03:51;;;;;;;4.73;2.43;;;13.60;99.90;;;;;;4932352;29;20459;-77
2023/01/01 08:06:24;;;;;;;4.00;2.17;;;13.60;99.90;;;;;;4929051;29;20469;-76
2023/01/01 08:08:52;;;;;;;6.50;2.70;;;13.60;99.90;;;;;;4932500;29;20457;-77
2023/01/01 08:11:25;;;;;;;7.60;2.30;;;13.60;99.90;;;;;;4932580;29;20501;-77
2023/01/01 08:13:53;;;;;;;8.40;2.77;;;13.60;99.90;;;;;;4901308;29;20461;-77
2023/01/01 08:16:22;;;;;;;5.37;2.50;;;13.60;99.90;;;;;;4932567;29;20473;-76
2023/01/01 08:18:48;;;;;;;7.27;2.43;;;13.60;99.90;;;;;;4932274;29;20460;-76
2023/01/01 08:21:16;;;;;;;5.60;2.83;;;13.60;99.90;;;;;;4932262;29;20963;-76
2023/01/01 08:23:42;;;;;;;3.73;2.13;;;13.60;99.90;;;;;;4919699;29;20449;-76
2023/01/01 08:26:16;;;;;;;5.20;2.47;;;13.60;99.90;;;;;;4956742;29;20428;-76
2023/01/01 08:28:43;;;;;;;3.80;2.37;;;13.60;99.90;;;;;;4940355;29;20477;-77
2023/01/01 08:31:09;;;;;;;5.90;2.77;;;13.60;99.90;;;;;;4956376;28;20769;-76
2023/01/01 08:33:37;;;;;;;5.60;2.87;;;13.60;99.90;;;;;;4955983;28;20540;-76
2023/01/01 08:36:08;;;;;;;10.37;3.13;;;13.60;99.90;;;;;;4957600;29;20467;-76
2023/01/01 08:38:37;;;;;;;4.53;2.43;;;13.60;99.90;;;;;;4957682;29;20420;-76
2023/01/01 08:41:05;;;;;;;4.60;2.53;;;13.50;99.90;;;;;;4924881;29;20477;-77
2023/01/01 08:43:31;;;;;;;6.30;2.20;;;13.50;99.90;;;;;;4957416;29;20449;-77
2023/01/01 08:45:56;;;;;;;3.60;2.10;;;13.60;99.90;;;;;;4957192;29;20464;-77
2023/01/01 08:48:25;;;;;;;6.03;2.90;;;13.50;99.90;;;;;;4957296;28;20450;-77
2023/01/01 08:50:55;;;;;;;5.47;2.37;;;13.50;99.90;;;;;;4957185;28;20437;-77
2023/01/01 08:53:22;;;;;;;3.90;2.67;;;13.60;99.90;;;;;;4940240;29;20451;-76
2023/01/01 08:56:09;;;;;;;7.73;2.50;;;13.50;99.90;;;;;;4939526;28;20466;-79
2023/01/01 08:58:36;;;;;;;8.20;3.17;;;13.50;99.90;;;;;;4955974;29;20502;-76
2023/01/01 09:01:06;;;;;;;4.43;2.57;;;13.60;99.90;;;;;;4956657;29;20863;-76
2023/01/01 09:03:33;;;;;;;5.97;3.07;;;13.50;99.90;;;;;;4939429;28;20448;-76
2023/01/01 09:06:02;;;;;;;3.70;2.20;;;13.50;99.90;;;;;;4956008;29;20462;-76
2023/01/01 09:08:30;;;;;;;4.20;2.37;;;13.60;99.90;;;;;;4955918;29;20905;-76
2023/01/01 09:11:01;;;;;;;5.57;2.20;;;13.60;99.90;;;;;;4956420;29;20973;-76
2023/01/01 09:13:30;;;;;;;4.47;2.30;;;13.50;99.90;;;;;;4955373;29;20450;-76
2023/01/01 09:15:58;;;;;;;3.87;2.27;;;13.50;99.90;;;;;;4955452;28;20477;-76
2023/01/01 09:18:24;;;;;;;5.40;3.07;;;13.60;99.90;;;;;;4955712;28;20783;-76
2023/01/01 09:20:53;;;;;;;8.30;2.77;;;13.50;99.90;;;;;;4955476;29;20430;-76
2023/01/01 09:23:21;;;;;;;5.80;3.40;;;13.50;99.90;;;;;;4956390;29;20505;-76
2023/01/01 09:25:50;;;;;;;9.43;3.43;;;13.50;99.90;;;;;;4939908;29;20526;-76
2023/01/01 09:28:17;;;;;;;4.17;2.70;;;13.60;99.90;;;;;;4955387;28;20514;-76
2023/01/01 09:30:44;;;;;;;4.83;2.40;;;13.50;99.90;;;;;;4956729;28;20814;-76
2023/01/01 09:33:36;;;;;;;5.70;2.87;;;13.60;99.90;;;;;;4929220;28;20515;-75
2023/01/01 09:36:12;;;;;;;3.30;2.27;;;13.50;99.90;;;;;;4954309;28;20972;-76
2023/01/01 09:38:38;;;;;;;5.40;2.87;;;13.60;99.90;;;;;;4939239;29;20959;-76
2023/01/01 09:41:35;;;;;;;5.73;2.80;;;13.60;99.90;;;;;;4940867;29;20531;-77
2023/01/01 09:44:07;;;;;;;5.50;2.30;;;13.60;99.90;;;;;;4955845;28;20452;-77
2023/01/01 09:46:35;;;;;;;4.53;2.70;;;13.50;99.90;;;;;;4940621;29;20443;-77
2023/01/01 09:49:23;;;;;;;6.30;2.43;;;13.60;99.90;;;;;;4941227;29;20466;-75
2023/01/01 09:51:59;;;;;;;3.90;2.23;;;13.60;99.90;;;;;;4955182;29;20422;-76
2023/01/01 09:54:39;;;;;;;5.27;2.63;;;13.50;99.90;;;;;;4939176;29;20811;-75
2023/01/01 09:57:10;;;;;;;4.80;2.73;;;13.60;99.90;;;;;;4955118;29;20917;-75
2023/01/01 09:59:37;;;;;;;6.30;3.03;;;13.50;99.90;;;;;;4954927;29;20421;-76
2023/01/01 10:02:13;;;;;;;7.60;3.37;;;13.50;99.90;;;;;;4955029;28;20447;-75
2023/01/01 10:05:00;;;;;;;10.70;2.70;;;13.50;99.90;;;;;;4955718;28;20455;-75
2023/01/01 10:07:25;;;;;;;5.03;3.20;;;13.50;99.90;;;;;;4954439;28;20773;-75
2023/01/01 10:10:21;;;;;;;6.30;2.77;;;13.50;99.90;;;;;;4955821;29;20763;-75
2023/01/01 10:13:13;;;;;;;5.03;3.00;;;13.50;99.90;;;;;;4954858;29;20542;-75
2023/01/01 10:16:06;;;;;;;4.80;2.97;;;13.50;99.90;;;;;;4938012;29;20545;-75
2023/01/01 10:18:37;;;;;;;5.33;2.77;;;13.50;99.90;;;;;;4953905;28;20484;-76
2023/01/01 10:21:30;;;;;;;4.50;2.70;;;13.50;99.90;;;;;;4935885;29;20447;-75
2023/01/01 10:24:04;;;;;;;5.90;3.50;;;13.50;99.90;;;;;;4933764;29;20544;-75
2023/01/01 10:26:33;;;;;;;8.27;3.30;;;13.50;99.90;;;;;;4952015;29;20431;-75
2023/01/01 10:29:11;;;;;;;5.77;3.07;;;13.50;99.90;;;;;;4935896;28;21039;-75
2023/01/01 10:31:53;;;;;;;7.10;2.80;;;13.50;99.90;;;;;;4937384;29;20445;-75
2023/01/01 10:34:28;;;;;;;5.90;3.17;;;13.50;99.90;;;;;;4951955;29;20970;-77
2023/01/01 10:36:57;;;;;;;7.63;2.97;;;13.50;99.90;;;;;;4935364;29;20521;-76
2023/01/01 10:39:23;;;;;;;2.87;2.13;;;13.50;99.90;;;;;;4953653;29;20523;-76
2023/01/01 10:41:50;;;;;;;3.90;2.77;;;13.50;99.90;;;;;;4952279;29;20435;-76
2023/01/01 10:44:28;;;;;;;7.57;3.70;;;13.50;99.90;;;;;;4952677;28;20466;-76
2023/01/01 10:47:03;;;;;;;5.27;3.00;;;13.50;99.90;;;;;;4951034;28;21005;-76
2023/01/01 10:50:01;;;;;;;6.40;3.33;;;13.50;99.90;;;;;;4952581;29;20421;-76
2023/01/01 10:52:35;;;;;;;6.60;2.73;;;13.50;99.90;;;;;;4936108;29;20538;-76
2023/01/01 10:55:02;;;;;;;4.53;2.37;;;13.50;99.90;;;;;;4950949;28;20566;-76
2023/01/01 10:57:38;;;;;;;5.60;2.90;;;13.50;99.90;;;;;;4952953;28;20411;-76
2023/01/01 11:00:21;;;;;;;10.93;3.00;;;13.50;99.90;;;;;;4936068;29;20422;-76
2023/01/01 11:03:08;;;;;;;8.93;2.57;;;13.50;99.90;;;;;;4953027;28;20487;-75
2023/01/01 11:05:36;;;;;;;4.30;2.50;;;13.50;99.90;;;;;;4935507;29;20447;-76
2023/01/01 11:08:03;;;;;;;5.83;2.83;;;13.50;99.90;;;;;;4951358;29;20477;-75
2023/01/01 11:10:31;;;;;;;4.87;2.80;;;13.50;99.90;;;;;;4952206;29;20464;-76
2023/01/01 11:13:00;;;;;;;3.80;2.27;;;13.50;99.90;;;;;;4951600;29;20465;-76
2023/01/01 11:15:40;;;;;;;5.90;2.73;;;13.50;99.90;;;;;;4952557;29;21009;-76
2023/01/01 11:18:21;;;;;;;5.67;2.60;;;13.50;99.90;;;;;;4950660;29;20471;-76
2023/01/01 11:20:54;;;;;;;4.53;2.60;;;13.50;99.90;;;;;;4952416;29;20467;-75
2023/01/01 11:23:32;;;;;;;5.80;2.23;;;13.60;99.90;;;;;;4934758;29;20459;-75
2023/01/01 11:26:16;;;;;;;6.00;2.80;;;13.60;99.90;;;;;;4919780;29;20849;-76
2023/01/01 11:29:24;;;;;;;4.50;2.50;;;13.60;99.90;;;;;;4951094;29;20464;-76
2023/01/01 11:31:51;;;;;;;8.20;3.23;;;13.50;99.90;;;;;;4895308;29;20442;-76
2023/01/01 11:34:31;;;;;;;4.40;2.90;;;13.50;99.90;;;;;;4893009;29;20467;-76
2023/01/01 11:37:24;;;;;;;5.70;2.80;;;13.50;99.90;;;;;;4893690;29;21040;-76
2023/01/01 11:39:51;;;;;;;5.13;3.00;;;13.60;99.90;;;;;;4910775;29;20556;-76
2023/01/01 11:42:35;;;;;;;4.93;2.90;;;13.50;99.90;;;;;;4896053;29;20487;-76
2023/01/01 11:45:21;;;;;;;7.73;2.50;;;13.50;99.90;;;;;;4903766;29;20469;-76
2023/01/01 11:47:57;;;;;;;4.40;2.80;;;13.60;99.90;;;;;;4892570;29;20531;-76
2023/01/01 11:50:35;;;;;;;6.43;2.60;;;13.60;99.90;;;;;;4886907;29;21078;-76
2023/01/01 11:53:26;;;;;;;8.00;3.50;;;13.50;99.90;;;;;;4893245;29;20493;-78
2023/01/01 11:55:58;;;;;;;9.10;3.07;;;13.50;99.90;;;;;;4882242;29;20484;-77
2023/01/01 11:59:10;;;;;;;4.93;2.47;;;13.50;99.90;;;;;;4878951;29;20985;-76
2023/01/01 12:01:49;;;;;;;4.77;2.23;;;13.60;99.90;;;;;;4861541;29;21143;-78
2023/01/01 12:04:44;;;;;;;3.33;2.40;;;13.60;99.90;;;;;;4897324;29;20471;-75
2023/01/01 12:07:20;;;;;;;8.47;2.80;;;13.60;99.90;;;;;;4896486;29;20471;-76
2023/01/01 12:09:56;;;;;;;4.93;2.60;;;13.60;99.90;;;;;;4911401;29;20454;-75
2023/01/01 12:12:26;;;;;;;6.23;2.53;;;13.60;99.90;;;;;;4896578;29;20460;-76
2023/01/01 12:15:15;;;;;;;6.30;2.30;;;13.60;99.90;;;;;;4897175;29;20422;-76
2023/01/01 12:17:46;;;;;;;6.10;2.90;;;13.60;99.90;;;;;;4889725;29;20514;-76
2023/01/01 12:20:22;;;;;;;10.20;2.60;;;13.60;99.90;;;;;;4865729;29;20437;-78
2023/01/01 12:22:49;;;;;;;4.30;2.30;;;13.60;99.90;;;;;;4907702;29;20985;-77
2023/01/01 12:25:20;;;;;;;3.30;2.17;;;13.60;99.90;;;;;;4916069;29;20448;-75
2023/01/01 12:28:15;;;;;;;5.20;2.87;;;13.60;99.90;;;;;;4898559;29;20462;-76
2023/01/01 12:30:54;;;;;;;4.60;2.27;;;13.60;99.90;;;;;;4895964;29;20914;-77
2023/01/01 12:33:44;;;;;;;8.13;2.80;;;13.60;99.90;;;;;;4931580;29;20961;-77
2023/01/01 12:36:16;;;;;;;4.70;2.60;;;13.60;99.90;;;;;;4932632;29;20537;-78
2023/01/01 12:38:51;;;;;;;9.00;3.00;;;13.60;99.90;;;;;;4925947;29;20851;-76
2023/01/01 12:41:40;;;;;;;5.33;2.67;;;13.60;99.90;;;;;;4952068;29;20503;-77
2023/01/01 12:44:26;;;;;;;6.37;3.00;;;13.60;99.90;;;;;;4951465;28;20466;-76
2023/01/01 12:47:10;;;;;;;9.03;3.00;;;13.60;99.90;;;;;;4935587;29;20791;-76
2023/01/01 12:49:57;;;;;;;4.60;2.70;;;13.60;99.90;;;;;;4941750;29;20462;-77
2023/01/01 12:52:34;;;;;;;5.73;2.30;;;13.60;99.90;;;;;;4953626;28;20449;-76
2023/01/01 12:55:06;;;;;;;8.17;2.87;;;13.60;99.90;;;;;;4950763;28;20563;-76
2023/01/01 12:57:35;;;;;;;6.03;2.70;;;13.60;99.90;;;;;;4951676;29;20995;-76
2023/01/01 13:00:15;;;;;;;4.90;2.27;;;13.60;99.90;;;;;;4952467;28;20435;-76
2023/01/01 13:02:54;;;;;;;3.50;2.43;;;13.60;99.90;;;;;;4986413;28;20794;-76
2023/01/01 13:05:25;;;;;;;5.67;2.60;;;13.60;99.90;;;;;;4954635;28;20476;-76
2023/01/01 13:08:02;;;;;;;5.83;2.20;;;13.60;99.90;;;;;;4956326;28;20452;-76
2023/01/01 13:10:33;;;;;;;4.00;2.13;;;13.60;99.90;;;;;;4935876;28;20429;-76
2023/01/01 13:13:04;;;;;;;7.00;2.50;;;13.60;99.90;;;;;;4939819;29;20447;-76
2023/01/01 13:15:39;;;;;;;6.40;2.70;;;13.60;99.90;;;;;;4954906;29;20479;-76
2023/01/01 13:18:25;;;;;;;5.43;2.57;;;13.60;99.90;;;;;;4939000;29;20435;-76
2023/01/01 13:20:56;;;;;;;8.13;3.10;;;13.60;99.90;;;;;;4953978;29;20444;-76